sensor_id;sensor_type;location;lat;lon;timestamp;P1;durP1;ratioP1;P2;durP2;ratioP2
47764;SDS011;33529;49.242;8.670;2023-01-04T00:00:52;6.25;;;3.45;;
47764;SDS011;33529;49.242;8.670;2023-01-04T00:03:29;4.88;;;3.40;;
47764;SDS011;33529;49.242;8.670;2023-01-04T00:06:00;4.07;;;2.63;;
47764;SDS011;33529;49.242;8.670;2023-01-04T00:08:29;4.65;;;2.83;;
47764;SDS011;33529;49.242;8.670;2023-01-04T00:11:04;4.85;;;2.72;;
47764;SDS011;33529;49.242;8.670;2023-01-04T00:13:33;3.55;;;2.58;;
47764;SDS011;33529;49.242;8.670;2023-01-04T00:16:04;5.57;;;3.35;;
47764;SDS011;33529;49.242;8.670;2023-01-04T00:18:34;4.57;;;2.63;;
47764;SDS011;33529;49.242;8.670;2023-01-04T00:21:05;4.88;;;3.08;;
47764;SDS011;33529;49.242;8.670;2023-01-04T00:23:33;4.40;;;2.65;;
47764;SDS011;33529;49.242;8.670;2023-01-04T00:26:00;5.47;;;2.83;;
47764;SDS011;33529;49.242;8.670;2023-01-04T00:28:26;4.45;;;2.70;;
47764;SDS011;33529;49.242;8.670;2023-01-04T00:30:53;4.90;;;3.05;;
47764;SDS011;33529;49.242;8.670;2023-01-04T00:33:20;3.72;;;2.08;;
47764;SDS011;33529;49.242;8.670;2023-01-04T00:35:46;4.55;;;2.28;;
47764;SDS011;33529;49.242;8.670;2023-01-04T00:38:13;4.40;;;2.20;;
47764;SDS011;33529;49.242;8.670;2023-01-04T00:40:40;4.22;;;2.85;;
47764;SDS011;33529;49.242;8.670;2023-01-04T00:43:07;4.22;;;2.75;;
47764;SDS011;33529;49.242;8.670;2023-01-04T00:45:34;3.45;;;2.35;;
47764;SDS011;33529;49.242;8.670;2023-01-04T00:48:00;3.85;;;2.22;;
47764;SDS011;33529;49.242;8.670;2023-01-04T00:50:27;4.72;;;3.00;;
47764;SDS011;33529;49.242;8.670;2023-01-04T00:52:54;6.35;;;2.90;;
47764;SDS011;33529;49.242;8.670;2023-01-04T00:55:20;4.88;;;2.65;;
47764;SDS011;33529;49.242;8.670;2023-01-04T00:57:47;3.13;;;1.75;;
47764;SDS011;33529;49.242;8.670;2023-01-04T01:00:14;5.00;;;2.38;;
47764;SDS011;33529;49.242;8.670;2023-01-04T01:02:41;5.53;;;2.80;;
47764;SDS011;33529;49.242;8.670;2023-01-04T01:05:08;4.53;;;2.53;;
47764;SDS011;33529;49.242;8.670;2023-01-04T01:07:35;4.55;;;2.28;;
47764;SDS011;33529;49.242;8.670;2023-01-04T01:10:02;5.20;;;2.67;;
47764;SDS011;33529;49.242;8.670;2023-01-04T01:12:29;3.00;;;2.25;;
47764;SDS011;33529;49.242;8.670;2023-01-04T01:14:56;4.82;;;2.47;;
47764;SDS011;33529;49.242;8.670;2023-01-04T01:17:26;4.20;;;2.42;;
47764;SDS011;33529;49.242;8.670;2023-01-04T01:19:52;2.95;;;2.03;;
47764;SDS011;33529;49.242;8.670;2023-01-04T01:22:19;4.35;;;2.28;;
47764;SDS011;33529;49.242;8.670;2023-01-04T01:24:46;3.70;;;2.50;;
47764;SDS011;33529;49.242;8.670;2023-01-04T01:27:13;4.57;;;2.17;;
47764;SDS011;33529;49.242;8.670;2023-01-04T01:29:40;3.65;;;2.33;;
47764;SDS011;33529;49.242;8.670;2023-01-04T01:32:07;4.60;;;2.97;;
47764;SDS011;33529;49.242;8.670;2023-01-04T01:34:34;4.65;;;2.80;;
47764;SDS011;33529;49.242;8.670;2023-01-04T01:37:00;5.10;;;3.05;;
47764;SDS011;33529;49.242;8.670;2023-01-04T01:39:28;4.53;;;2.55;;
47764;SDS011;33529;49.242;8.670;2023-01-04T01:41:54;4.97;;;2.85;;
47764;SDS011;33529;49.242;8.670;2023-01-04T01:47:13;3.50;;;2.20;;
47764;SDS011;33529;49.242;8.670;2023-01-04T01:49:44;4.03;;;2.55;;
47764;SDS011;33529;49.242;8.670;2023-01-04T01:52:14;5.07;;;2.67;;
47764;SDS011;33529;49.242;8.670;2023-01-04T01:54:44;6.30;;;3.15;;
47764;SDS011;33529;49.242;8.670;2023-01-04T01:57:15;5.10;;;2.77;;
47764;SDS011;33529;49.242;8.670;2023-01-04T01:59:45;6.07;;;3.20;;
47764;SDS011;33529;49.242;8.670;2023-01-04T02:02:14;4.30;;;2.95;;
47764;SDS011;33529;49.242;8.670;2023-01-04T02:04:43;6.30;;;3.08;;
47764;SDS011;33529;49.242;8.670;2023-01-04T02:09:41;4.40;;;2.75;;
47764;SDS011;33529;49.242;8.670;2023-01-04T02:12:10;5.45;;;2.75;;
47764;SDS011;33529;49.242;8.670;2023-01-04T02:14:38;6.65;;;3.75;;
47764;SDS011;33529;49.242;8.670;2023-01-04T02:17:13;5.15;;;3.15;;
47764;SDS011;33529;49.242;8.670;2023-01-04T02:19:58;5.75;;;3.42;;
47764;SDS011;33529;49.242;8.670;2023-01-04T02:22:42;6.90;;;3.83;;
47764;SDS011;33529;49.242;8.670;2023-01-04T02:28:45;5.78;;;3.28;;
47764;SDS011;33529;49.242;8.670;2023-01-04T02:34:46;6.10;;;3.50;;
47764;SDS011;33529;49.242;8.670;2023-01-04T02:37:54;7.05;;;3.60;;
47764;SDS011;33529;49.242;8.670;2023-01-04T02:40:37;6.00;;;3.38;;
47764;SDS011;33529;49.242;8.670;2023-01-04T02:46:26;5.70;;;3.53;;
47764;SDS011;33529;49.242;8.670;2023-01-04T02:48:59;6.78;;;3.55;;
47764;SDS011;33529;49.242;8.670;2023-01-04T02:51:45;4.97;;;3.45;;
47764;SDS011;33529;49.242;8.670;2023-01-04T02:54:13;5.63;;;3.50;;
47764;SDS011;33529;49.242;8.670;2023-01-04T02:59:53;6.82;;;4.07;;
47764;SDS011;33529;49.242;8.670;2023-01-04T03:11:37;5.38;;;3.85;;
47764;SDS011;33529;49.242;8.670;2023-01-04T03:14:28;7.60;;;4.28;;
47764;SDS011;33529;49.242;8.670;2023-01-04T03:17:06;6.82;;;3.97;;
47764;SDS011;33529;49.242;8.670;2023-01-04T03:19:37;6.40;;;4.35;;
47764;SDS011;33529;49.242;8.670;2023-01-04T03:22:43;6.25;;;4.70;;
47764;SDS011;33529;49.242;8.670;2023-01-04T03:25:36;7.70;;;5.22;;
47764;SDS011;33529;49.242;8.670;2023-01-04T03:28:26;8.60;;;4.65;;
47764;SDS011;33529;49.242;8.670;2023-01-04T03:31:27;7.45;;;4.30;;
47764;SDS011;33529;49.242;8.670;2023-01-04T03:34:26;7.97;;;5.30;;
47764;SDS011;33529;49.242;8.670;2023-01-04T03:37:16;9.52;;;6.47;;
47764;SDS011;33529;49.242;8.670;2023-01-04T03:39:57;8.48;;;5.93;;
47764;SDS011;33529;49.242;8.670;2023-01-04T03:45:44;9.35;;;6.38;;
47764;SDS011;33529;49.242;8.670;2023-01-04T03:48:52;11.70;;;6.22;;
47764;SDS011;33529;49.242;8.670;2023-01-04T03:51:26;11.60;;;6.72;;
47764;SDS011;33529;49.242;8.670;2023-01-04T03:54:10;8.98;;;5.57;;
47764;SDS011;33529;49.242;8.670;2023-01-04T03:56:51;10.65;;;6.90;;
47764;SDS011;33529;49.242;8.670;2023-01-04T03:59:19;10.82;;;6.65;;
47764;SDS011;33529;49.242;8.670;2023-01-04T04:01:48;10.43;;;7.22;;
47764;SDS011;33529;49.242;8.670;2023-01-04T04:04:15;11.23;;;7.75;;
47764;SDS011;33529;49.242;8.670;2023-01-04T04:07:01;14.98;;;7.80;;
47764;SDS011;33529;49.242;8.670;2023-01-04T04:09:46;13.15;;;6.50;;
47764;SDS011;33529;49.242;8.670;2023-01-04T04:12:13;14.38;;;7.55;;
47764;SDS011;33529;49.242;8.670;2023-01-04T04:14:40;11.90;;;7.32;;
47764;SDS011;33529;49.242;8.670;2023-01-04T04:17:06;12.13;;;6.95;;
47764;SDS011;33529;49.242;8.670;2023-01-04T04:19:33;12.27;;;7.03;;
47764;SDS011;33529;49.242;8.670;2023-01-04T04:22:00;11.95;;;7.25;;
47764;SDS011;33529;49.242;8.670;2023-01-04T04:24:27;10.38;;;6.20;;
47764;SDS011;33529;49.242;8.670;2023-01-04T04:26:56;10.20;;;6.18;;
47764;SDS011;33529;49.242;8.670;2023-01-04T04:29:23;9.85;;;6.13;;
47764;SDS011;33529;49.242;8.670;2023-01-04T04:31:50;10.15;;;5.72;;
47764;SDS011;33529;49.242;8.670;2023-01-04T04:34:17;11.20;;;5.70;;
47764;SDS011;33529;49.242;8.670;2023-01-04T04:36:44;12.55;;;6.22;;
47764;SDS011;33529;49.242;8.670;2023-01-04T04:39:11;13.13;;;6.55;;
47764;SDS011;33529;49.242;8.670;2023-01-04T04:41:38;11.93;;;6.25;;
47764;SDS011;33529;49.242;8.670;2023-01-04T04:44:14;11.80;;;5.88;;
47764;SDS011;33529;49.242;8.670;2023-01-04T04:46:45;10.52;;;6.65;;
47764;SDS011;33529;49.242;8.670;2023-01-04T04:49:13;12.70;;;5.90;;
47764;SDS011;33529;49.242;8.670;2023-01-04T04:51:41;9.70;;;5.53;;
47764;SDS011;33529;49.242;8.670;2023-01-04T04:54:09;11.35;;;5.65;;
47764;SDS011;33529;49.242;8.670;2023-01-04T04:56:39;10.02;;;5.80;;
47764;SDS011;33529;49.242;8.670;2023-01-04T04:59:06;9.05;;;5.40;;
47764;SDS011;33529;49.242;8.670;2023-01-04T05:01:32;12.68;;;5.63;;
47764;SDS011;33529;49.242;8.670;2023-01-04T05:04:00;11.40;;;6.50;;
47764;SDS011;33529;49.242;8.670;2023-01-04T05:06:26;11.73;;;5.82;;
47764;SDS011;33529;49.242;8.670;2023-01-04T05:08:54;10.57;;;6.50;;
47764;SDS011;33529;49.242;8.670;2023-01-04T05:11:21;9.73;;;5.60;;
47764;SDS011;33529;49.242;8.670;2023-01-04T05:14:07;10.27;;;5.75;;
47764;SDS011;33529;49.242;8.670;2023-01-04T05:16:35;9.95;;;5.45;;
47764;SDS011;33529;49.242;8.670;2023-01-04T05:19:02;8.57;;;5.38;;
47764;SDS011;33529;49.242;8.670;2023-01-04T05:21:28;10.98;;;5.32;;
47764;SDS011;33529;49.242;8.670;2023-01-04T05:23:55;9.68;;;5.32;;
47764;SDS011;33529;49.242;8.670;2023-01-04T05:26:22;9.65;;;5.40;;
47764;SDS011;33529;49.242;8.670;2023-01-04T05:28:48;10.05;;;5.05;;
47764;SDS011;33529;49.242;8.670;2023-01-04T05:31:19;14.02;;;6.45;;
47764;SDS011;33529;49.242;8.670;2023-01-04T05:33:47;9.57;;;5.22;;
47764;SDS011;33529;49.242;8.670;2023-01-04T05:36:14;9.95;;;6.07;;
47764;SDS011;33529;49.242;8.670;2023-01-04T05:38:41;11.02;;;5.18;;
47764;SDS011;33529;49.242;8.670;2023-01-04T05:41:07;8.25;;;4.85;;
47764;SDS011;33529;49.242;8.670;2023-01-04T05:43:54;7.00;;;4.22;;
47764;SDS011;33529;49.242;8.670;2023-01-04T05:46:21;10.00;;;5.00;;
47764;SDS011;33529;49.242;8.670;2023-01-04T05:48:48;7.82;;;4.32;;
47764;SDS011;33529;49.242;8.670;2023-01-04T05:51:15;8.40;;;4.72;;
47764;SDS011;33529;49.242;8.670;2023-01-04T05:53:42;7.22;;;4.55;;
47764;SDS011;33529;49.242;8.670;2023-01-04T05:56:09;6.90;;;4.25;;
47764;SDS011;33529;49.242;8.670;2023-01-04T05:58:35;8.40;;;4.35;;
47764;SDS011;33529;49.242;8.670;2023-01-04T06:01:02;8.65;;;4.00;;
47764;SDS011;33529;49.242;8.670;2023-01-04T06:03:29;7.22;;;4.10;;
47764;SDS011;33529;49.242;8.670;2023-01-04T06:05:56;6.60;;;4.25;;
47764;SDS011;33529;49.242;8.670;2023-01-04T06:08:22;7.63;;;4.55;;
47764;SDS011;33529;49.242;8.670;2023-01-04T06:10:52;8.73;;;4.72;;
47764;SDS011;33529;49.242;8.670;2023-01-04T06:13:19;7.07;;;4.13;;
47764;SDS011;33529;49.242;8.670;2023-01-04T06:15:46;7.43;;;3.92;;
47764;SDS011;33529;49.242;8.670;2023-01-04T06:18:13;7.15;;;4.35;;
47764;SDS011;33529;49.242;8.670;2023-01-04T06:20:41;8.68;;;4.20;;
47764;SDS011;33529;49.242;8.670;2023-01-04T06:23:08;7.38;;;4.45;;
47764;SDS011;33529;49.242;8.670;2023-01-04T06:25:35;7.53;;;4.38;;
47764;SDS011;33529;49.242;8.670;2023-01-04T06:28:03;5.82;;;4.13;;
47764;SDS011;33529;49.242;8.670;2023-01-04T06:30:30;7.05;;;3.95;;
47764;SDS011;33529;49.242;8.670;2023-01-04T06:32:57;7.22;;;3.80;;
47764;SDS011;33529;49.242;8.670;2023-01-04T06:35:24;5.82;;;3.55;;
47764;SDS011;33529;49.242;8.670;2023-01-04T06:37:50;6.05;;;3.20;;
47764;SDS011;33529;49.242;8.670;2023-01-04T06:40:17;5.75;;;3.75;;
47764;SDS011;33529;49.242;8.670;2023-01-04T06:42:44;4.97;;;3.08;;
47764;SDS011;33529;49.242;8.670;2023-01-04T06:45:11;6.28;;;3.53;;
47764;SDS011;33529;49.242;8.670;2023-01-04T06:47:40;5.10;;;3.47;;
47764;SDS011;33529;49.242;8.670;2023-01-04T06:50:07;6.20;;;3.00;;
47764;SDS011;33529;49.242;8.670;2023-01-04T06:52:35;6.90;;;3.28;;
47764;SDS011;33529;49.242;8.670;2023-01-04T06:55:01;5.32;;;3.05;;
47764;SDS011;33529;49.242;8.670;2023-01-04T06:57:29;5.25;;;2.78;;
47764;SDS011;33529;49.242;8.670;2023-01-04T06:59:56;5.20;;;2.83;;
47764;SDS011;33529;49.242;8.670;2023-01-04T07:02:22;5.13;;;2.92;;
47764;SDS011;33529;49.242;8.670;2023-01-04T07:04:49;4.90;;;2.55;;
47764;SDS011;33529;49.242;8.670;2023-01-04T07:07:16;6.72;;;3.42;;
47764;SDS011;33529;49.242;8.670;2023-01-04T07:09:43;5.40;;;2.70;;
47764;SDS011;33529;49.242;8.670;2023-01-04T07:12:10;5.82;;;2.75;;
47764;SDS011;33529;49.242;8.670;2023-01-04T07:14:37;4.60;;;2.45;;
47764;SDS011;33529;49.242;8.670;2023-01-04T07:17:03;4.47;;;2.92;;
47764;SDS011;33529;49.242;8.670;2023-01-04T07:19:30;5.18;;;2.42;;
47764;SDS011;33529;49.242;8.670;2023-01-04T07:21:58;3.63;;;2.33;;
47764;SDS011;33529;49.242;8.670;2023-01-04T07:24:27;4.75;;;3.08;;
47764;SDS011;33529;49.242;8.670;2023-01-04T07:26:57;5.07;;;2.63;;
47764;SDS011;33529;49.242;8.670;2023-01-04T07:29:24;4.43;;;2.47;;
47764;SDS011;33529;49.242;8.670;2023-01-04T07:31:51;5.43;;;3.05;;
47764;SDS011;33529;49.242;8.670;2023-01-04T07:34:20;5.82;;;3.05;;
47764;SDS011;33529;49.242;8.670;2023-01-04T07:36:51;4.93;;;2.92;;
47764;SDS011;33529;49.242;8.670;2023-01-04T07:39:18;4.93;;;2.90;;
47764;SDS011;33529;49.242;8.670;2023-01-04T07:41:46;4.55;;;2.50;;
47764;SDS011;33529;49.242;8.670;2023-01-04T07:44:17;4.00;;;2.47;;
47764;SDS011;33529;49.242;8.670;2023-01-04T07:46:43;4.45;;;2.22;;
47764;SDS011;33529;49.242;8.670;2023-01-04T07:49:11;6.18;;;2.67;;
47764;SDS011;33529;49.242;8.670;2023-01-04T07:51:43;3.17;;;2.08;;
47764;SDS011;33529;49.242;8.670;2023-01-04T07:54:14;3.60;;;2.05;;
47764;SDS011;33529;49.242;8.670;2023-01-04T07:56:43;4.13;;;2.03;;
47764;SDS011;33529;49.242;8.670;2023-01-04T07:59:11;3.67;;;2.70;;
47764;SDS011;33529;49.242;8.670;2023-01-04T08:01:40;3.78;;;2.20;;
47764;SDS011;33529;49.242;8.670;2023-01-04T08:04:08;3.15;;;2.05;;
47764;SDS011;33529;49.242;8.670;2023-01-04T08:06:37;3.25;;;1.70;;
47764;SDS011;33529;49.242;8.670;2023-01-04T08:09:05;3.55;;;1.83;;
47764;SDS011;33529;49.242;8.670;2023-01-04T08:11:32;4.70;;;1.80;;
47764;SDS011;33529;49.242;8.670;2023-01-04T08:14:00;4.25;;;1.67;;
47764;SDS011;33529;49.242;8.670;2023-01-04T08:16:29;3.65;;;1.98;;
47764;SDS011;33529;49.242;8.670;2023-01-04T08:19:03;3.50;;;1.60;;
47764;SDS011;33529;49.242;8.670;2023-01-04T08:21:32;3.03;;;1.77;;
47764;SDS011;33529;49.242;8.670;2023-01-04T08:24:00;2.75;;;1.70;;
47764;SDS011;33529;49.242;8.670;2023-01-04T08:26:28;2.13;;;1.20;;
47764;SDS011;33529;49.242;8.670;2023-01-04T08:28:55;2.45;;;1.40;;
47764;SDS011;33529;49.242;8.670;2023-01-04T08:31:23;5.30;;;1.73;;
47764;SDS011;33529;49.242;8.670;2023-01-04T08:33:54;1.27;;;0.93;;
47764;SDS011;33529;49.242;8.670;2023-01-04T08:36:25;1.63;;;0.90;;
47764;SDS011;33529;49.242;8.670;2023-01-04T08:38:54;1.38;;;0.70;;
47764;SDS011;33529;49.242;8.670;2023-01-04T08:41:26;2.50;;;0.82;;
47764;SDS011;33529;49.242;8.670;2023-01-04T08:44:14;1.05;;;0.50;;
47764;SDS011;33529;49.242;8.670;2023-01-04T08:46:51;0.70;;;0.50;;
47764;SDS011;33529;49.242;8.670;2023-01-04T08:49:19;1.30;;;0.50;;
47764;SDS011;33529;49.242;8.670;2023-01-04T08:51:47;1.45;;;0.60;;
47764;SDS011;33529;49.242;8.670;2023-01-04T08:54:15;0.80;;;0.40;;
47764;SDS011;33529;49.242;8.670;2023-01-04T08:56:42;1.23;;;0.50;;
47764;SDS011;33529;49.242;8.670;2023-01-04T08:59:10;0.28;;;0.28;;
47764;SDS011;33529;49.242;8.670;2023-01-04T09:01:38;0.90;;;0.32;;
47764;SDS011;33529;49.242;8.670;2023-01-04T09:04:05;2.33;;;0.50;;
47764;SDS011;33529;49.242;8.670;2023-01-04T09:06:32;0.65;;;0.47;;
47764;SDS011;33529;49.242;8.670;2023-01-04T09:09:00;0.93;;;0.50;;
47764;SDS011;33529;49.242;8.670;2023-01-04T09:11:27;0.50;;;0.40;;
47764;SDS011;33529;49.242;8.670;2023-01-04T09:13:55;1.25;;;0.50;;
47764;SDS011;33529;49.242;8.670;2023-01-04T09:16:33;0.57;;;0.35;;
47764;SDS011;33529;49.242;8.670;2023-01-04T09:19:00;0.47;;;0.32;;
47764;SDS011;33529;49.242;8.670;2023-01-04T09:21:27;0.50;;;0.40;;
47764;SDS011;33529;49.242;8.670;2023-01-04T09:23:55;0.40;;;0.30;;
47764;SDS011;33529;49.242;8.670;2023-01-04T09:26:23;0.68;;;0.38;;
47764;SDS011;33529;49.242;8.670;2023-01-04T09:28:51;0.65;;;0.30;;
47764;SDS011;33529;49.242;8.670;2023-01-04T09:31:20;1.48;;;0.40;;
47764;SDS011;33529;49.242;8.670;2023-01-04T09:33:48;0.47;;;0.30;;
47764;SDS011;33529;49.242;8.670;2023-01-04T09:36:35;0.50;;;0.30;;
47764;SDS011;33529;49.242;8.670;2023-01-04T09:39:02;0.93;;;0.50;;
47764;SDS011;33529;49.242;8.670;2023-01-04T09:41:31;0.73;;;0.35;;
47764;SDS011;33529;49.242;8.670;2023-01-04T09:46:39;0.50;;;0.30;;
47764;SDS011;33529;49.242;8.670;2023-01-04T09:55:15;0.22;;;0.22;;
47764;SDS011;33529;49.242;8.670;2023-01-04T09:58:03;0.38;;;0.38;;
47764;SDS011;33529;49.242;8.670;2023-01-04T10:00:34;1.00;;;0.43;;
47764;SDS011;33529;49.242;8.670;2023-01-04T10:03:12;0.47;;;0.30;;
47764;SDS011;33529;49.242;8.670;2023-01-04T10:05:53;1.05;;;0.55;;
47764;SDS011;33529;49.242;8.670;2023-01-04T10:08:21;2.67;;;0.73;;
47764;SDS011;33529;49.242;8.670;2023-01-04T10:11:23;0.90;;;0.47;;
47764;SDS011;33529;49.242;8.670;2023-01-04T10:13:51;1.23;;;0.30;;
47764;SDS011;33529;49.242;8.670;2023-01-04T10:31:04;1.67;;;0.77;;
47764;SDS011;33529;49.242;8.670;2023-01-04T10:36:50;0.47;;;0.32;;
47764;SDS011;33529;49.242;8.670;2023-01-04T10:39:22;0.85;;;0.50;;
47764;SDS011;33529;49.242;8.670;2023-01-04T10:41:59;0.88;;;0.32;;
47764;SDS011;33529;49.242;8.670;2023-01-04T10:44:49;1.27;;;0.32;;
47764;SDS011;33529;49.242;8.670;2023-01-04T10:47:35;0.73;;;0.40;;
47764;SDS011;33529;49.242;8.670;2023-01-04T10:50:12;0.45;;;0.20;;
47764;SDS011;33529;49.242;8.670;2023-01-04T10:52:41;0.63;;;0.40;;
47764;SDS011;33529;49.242;8.670;2023-01-04T10:55:13;0.47;;;0.40;;
47764;SDS011;33529;49.242;8.670;2023-01-04T10:58:01;0.47;;;0.40;;
47764;SDS011;33529;49.242;8.670;2023-01-04T11:00:47;1.10;;;0.60;;
47764;SDS011;33529;49.242;8.670;2023-01-04T11:03:35;0.98;;;0.60;;
47764;SDS011;33529;49.242;8.670;2023-01-04T11:06:27;0.57;;;0.40;;
47764;SDS011;33529;49.242;8.670;2023-01-04T11:09:13;1.77;;;0.57;;
47764;SDS011;33529;49.242;8.670;2023-01-04T11:11:50;0.55;;;0.45;;
47764;SDS011;33529;49.242;8.670;2023-01-04T11:14:21;1.02;;;0.57;;
47764;SDS011;33529;49.242;8.670;2023-01-04T11:16:51;1.85;;;0.50;;
47764;SDS011;33529;49.242;8.670;2023-01-04T11:19:26;0.55;;;0.40;;
47764;SDS011;33529;49.242;8.670;2023-01-04T11:24:37;0.85;;;0.40;;
47764;SDS011;33529;49.242;8.670;2023-01-04T11:27:26;0.55;;;0.30;;
47764;SDS011;33529;49.242;8.670;2023-01-04T11:30:00;0.88;;;0.45;;
47764;SDS011;33529;49.242;8.670;2023-01-04T11:35:03;0.65;;;0.40;;
47764;SDS011;33529;49.242;8.670;2023-01-04T11:37:31;1.10;;;0.45;;
47764;SDS011;33529;49.242;8.670;2023-01-04T11:40:20;1.15;;;0.45;;
47764;SDS011;33529;49.242;8.670;2023-01-04T11:42:51;1.27;;;0.45;;
47764;SDS011;33529;49.242;8.670;2023-01-04T11:45:36;0.77;;;0.57;;
47764;SDS011;33529;49.242;8.670;2023-01-04T11:48:03;0.70;;;0.40;;
47764;SDS011;33529;49.242;8.670;2023-01-04T11:59:10;1.92;;;0.90;;
47764;SDS011;33529;49.242;8.670;2023-01-04T12:01:48;1.00;;;0.47;;
47764;SDS011;33529;49.242;8.670;2023-01-04T12:04:21;2.17;;;0.70;;
47764;SDS011;33529;49.242;8.670;2023-01-04T12:06:52;1.27;;;0.60;;
47764;SDS011;33529;49.242;8.670;2023-01-04T12:09:25;0.85;;;0.40;;
47764;SDS011;33529;49.242;8.670;2023-01-04T12:11:52;0.57;;;0.30;;
47764;SDS011;33529;49.242;8.670;2023-01-04T12:19:39;0.60;;;0.30;;
47764;SDS011;33529;49.242;8.670;2023-01-04T12:25:04;0.50;;;0.40;;
47764;SDS011;33529;49.242;8.670;2023-01-04T12:27:53;1.00;;;0.47;;
47764;SDS011;33529;49.242;8.670;2023-01-04T12:30:33;0.65;;;0.38;;
47764;SDS011;33529;49.242;8.670;2023-01-04T12:36:08;2.20;;;0.85;;
47764;SDS011;33529;49.242;8.670;2023-01-04T12:41:21;1.30;;;0.63;;
47764;SDS011;33529;49.242;8.670;2023-01-04T12:44:01;0.30;;;0.30;;
47764;SDS011;33529;49.242;8.670;2023-01-04T12:46:51;1.30;;;0.68;;
47764;SDS011;33529;49.242;8.670;2023-01-04T12:49:47;0.40;;;0.38;;
47764;SDS011;33529;49.242;8.670;2023-01-04T12:57:51;0.40;;;0.40;;
47764;SDS011;33529;49.242;8.670;2023-01-04T13:00:18;0.45;;;0.35;;
47764;SDS011;33529;49.242;8.670;2023-01-04T13:02:45;1.27;;;0.68;;
47764;SDS011;33529;49.242;8.670;2023-01-04T13:08:08;1.27;;;0.55;;
47764;SDS011;33529;49.242;8.670;2023-01-04T13:10:39;0.40;;;0.40;;
47764;SDS011;33529;49.242;8.670;2023-01-04T13:16:32;1.52;;;0.60;;
47764;SDS011;33529;49.242;8.670;2023-01-04T13:19:14;0.52;;;0.30;;
47764;SDS011;33529;49.242;8.670;2023-01-04T13:21:50;0.90;;;0.60;;
47764;SDS011;33529;49.242;8.670;2023-01-04T13:26:56;0.93;;;0.47;;
47764;SDS011;33529;49.242;8.670;2023-01-04T13:29:33;1.02;;;0.50;;
47764;SDS011;33529;49.242;8.670;2023-01-04T13:32:11;0.43;;;0.40;;
47764;SDS011;33529;49.242;8.670;2023-01-04T13:37:47;1.65;;;0.40;;
47764;SDS011;33529;49.242;8.670;2023-01-04T13:42:57;0.85;;;0.55;;
47764;SDS011;33529;49.242;8.670;2023-01-04T13:45:33;1.42;;;0.73;;
47764;SDS011;33529;49.242;8.670;2023-01-04T13:48:17;1.45;;;0.70;;
47764;SDS011;33529;49.242;8.670;2023-01-04T13:50:59;0.40;;;0.40;;
47764;SDS011;33529;49.242;8.670;2023-01-04T13:53:29;0.40;;;0.40;;
47764;SDS011;33529;49.242;8.670;2023-01-04T13:55:59;0.52;;;0.50;;
47764;SDS011;33529;49.242;8.670;2023-01-04T13:58:28;1.27;;;0.50;;
47764;SDS011;33529;49.242;8.670;2023-01-04T14:01:04;1.10;;;0.52;;
47764;SDS011;33529;49.242;8.670;2023-01-04T14:03:41;0.90;;;0.22;;
47764;SDS011;33529;49.242;8.670;2023-01-04T14:06:16;0.30;;;0.30;;
47764;SDS011;33529;49.242;8.670;2023-01-04T14:09:05;0.63;;;0.45;;
47764;SDS011;33529;49.242;8.670;2023-01-04T14:14:48;0.57;;;0.30;;
47764;SDS011;33529;49.242;8.670;2023-01-04T14:28:17;1.27;;;0.40;;
47764;SDS011;33529;49.242;8.670;2023-01-04T14:33:37;1.13;;;0.50;;
47764;SDS011;33529;49.242;8.670;2023-01-04T14:46:36;1.33;;;0.50;;
47764;SDS011;33529;49.242;8.670;2023-01-04T14:52:16;0.40;;;0.40;;
47764;SDS011;33529;49.242;8.670;2023-01-04T14:54:46;1.33;;;0.70;;
47764;SDS011;33529;49.242;8.670;2023-01-04T14:57:12;0.98;;;0.60;;
47764;SDS011;33529;49.242;8.670;2023-01-04T14:59:40;0.90;;;0.50;;
47764;SDS011;33529;49.242;8.670;2023-01-04T15:02:12;0.60;;;0.50;;
47764;SDS011;33529;49.242;8.670;2023-01-04T15:04:39;2.10;;;0.50;;
47764;SDS011;33529;49.242;8.670;2023-01-04T15:07:06;0.28;;;0.28;;
47764;SDS011;33529;49.242;8.670;2023-01-04T15:09:56;0.93;;;0.52;;
47764;SDS011;33529;49.242;8.670;2023-01-04T15:12:22;1.25;;;0.60;;
47764;SDS011;33529;49.242;8.670;2023-01-04T15:14:49;1.50;;;0.63;;
47764;SDS011;33529;49.242;8.670;2023-01-04T15:17:16;1.08;;;0.50;;
47764;SDS011;33529;49.242;8.670;2023-01-04T15:19:43;1.27;;;0.43;;
47764;SDS011;33529;49.242;8.670;2023-01-04T15:22:10;0.40;;;0.35;;
47764;SDS011;33529;49.242;8.670;2023-01-04T15:24:36;0.73;;;0.50;;
47764;SDS011;33529;49.242;8.670;2023-01-04T15:27:03;1.98;;;0.63;;
47764;SDS011;33529;49.242;8.670;2023-01-04T15:29:30;0.57;;;0.40;;
47764;SDS011;33529;49.242;8.670;2023-01-04T15:31:57;2.53;;;0.85;;
47764;SDS011;33529;49.242;8.670;2023-01-04T15:34:24;1.50;;;0.75;;
47764;SDS011;33529;49.242;8.670;2023-01-04T15:36:51;0.75;;;0.30;;
47764;SDS011;33529;49.242;8.670;2023-01-04T15:39:17;0.40;;;0.20;;
47764;SDS011;33529;49.242;8.670;2023-01-04T15:41:44;0.90;;;0.40;;
47764;SDS011;33529;49.242;8.670;2023-01-04T15:44:30;0.85;;;0.50;;
47764;SDS011;33529;49.242;8.670;2023-01-04T15:46:59;0.98;;;0.47;;
47764;SDS011;33529;49.242;8.670;2023-01-04T15:49:27;1.20;;;0.50;;
47764;SDS011;33529;49.242;8.670;2023-01-04T15:51:55;0.95;;;0.65;;
47764;SDS011;33529;49.242;8.670;2023-01-04T15:54:26;0.50;;;0.40;;
47764;SDS011;33529;49.242;8.670;2023-01-04T15:56:53;0.43;;;0.25;;
47764;SDS011;33529;49.242;8.670;2023-01-04T15:59:20;0.30;;;0.30;;
47764;SDS011;33529;49.242;8.670;2023-01-04T16:01:47;1.45;;;0.40;;
47764;SDS011;33529;49.242;8.670;2023-01-04T16:04:14;0.73;;;0.50;;
47764;SDS011;33529;49.242;8.670;2023-01-04T16:06:41;0.85;;;0.50;;
47764;SDS011;33529;49.242;8.670;2023-01-04T16:09:08;0.20;;;0.20;;
47764;SDS011;33529;49.242;8.670;2023-01-04T16:11:35;1.08;;;0.50;;
47764;SDS011;33529;49.242;8.670;2023-01-04T16:14:22;0.57;;;0.30;;
47764;SDS011;33529;49.242;8.670;2023-01-04T16:16:49;0.63;;;0.40;;
47764;SDS011;33529;49.242;8.670;2023-01-04T16:19:15;0.77;;;0.40;;
47764;SDS011;33529;49.242;8.670;2023-01-04T16:21:42;0.57;;;0.47;;
47764;SDS011;33529;49.242;8.670;2023-01-04T16:24:09;1.70;;;0.70;;
47764;SDS011;33529;49.242;8.670;2023-01-04T16:26:56;1.23;;;0.52;;
47764;SDS011;33529;49.242;8.670;2023-01-04T16:29:22;0.40;;;0.40;;
47764;SDS011;33529;49.242;8.670;2023-01-04T16:31:50;0.35;;;0.30;;
47764;SDS011;33529;49.242;8.670;2023-01-04T16:34:16;0.40;;;0.35;;
47764;SDS011;33529;49.242;8.670;2023-01-04T16:36:43;3.38;;;0.40;;
47764;SDS011;33529;49.242;8.670;2023-01-04T16:39:10;0.75;;;0.50;;
47764;SDS011;33529;49.242;8.670;2023-01-04T16:41:38;1.05;;;0.60;;
47764;SDS011;33529;49.242;8.670;2023-01-04T16:44:04;0.52;;;0.40;;
47764;SDS011;33529;49.242;8.670;2023-01-04T16:46:33;0.60;;;0.35;;
47764;SDS011;33529;49.242;8.670;2023-01-04T16:49:04;1.02;;;0.40;;
47764;SDS011;33529;49.242;8.670;2023-01-04T16:51:37;0.75;;;0.30;;
47764;SDS011;33529;49.242;8.670;2023-01-04T16:54:06;1.38;;;0.47;;
47764;SDS011;33529;49.242;8.670;2023-01-04T16:56:34;0.57;;;0.40;;
47764;SDS011;33529;49.242;8.670;2023-01-04T16:59:02;1.48;;;0.60;;
47764;SDS011;33529;49.242;8.670;2023-01-04T17:01:30;0.40;;;0.30;;
47764;SDS011;33529;49.242;8.670;2023-01-04T17:03:59;1.88;;;0.55;;
47764;SDS011;33529;49.242;8.670;2023-01-04T17:06:34;0.65;;;0.45;;
47764;SDS011;33529;49.242;8.670;2023-01-04T17:09:03;0.43;;;0.35;;
47764;SDS011;33529;49.242;8.670;2023-01-04T17:11:32;1.08;;;0.55;;
47764;SDS011;33529;49.242;8.670;2023-01-04T17:14:20;1.20;;;0.50;;
47764;SDS011;33529;49.242;8.670;2023-01-04T17:16:47;1.30;;;0.52;;
47764;SDS011;33529;49.242;8.670;2023-01-04T17:19:14;0.63;;;0.30;;
47764;SDS011;33529;49.242;8.670;2023-01-04T17:21:41;1.52;;;0.60;;
47764;SDS011;33529;49.242;8.670;2023-01-04T17:24:08;1.50;;;0.50;;
47764;SDS011;33529;49.242;8.670;2023-01-04T17:26:35;0.68;;;0.60;;